Time;durP1;ratioP1;P1;durP2;ratioP2;P2;SDS_P1;SDS_P2;PMS_P1;PMS_P2;Temp;Humidity;BMP_temperature;BMP_pressure;BME280_temperature;BME280_humidity;BME280_pressure;Samples;Min_cycle;Max_cycle;Signal;HPM_P1;HPM_P2
2022/07/09 00:00:21;;;;;;;14.05;3.13;;;19.00;93.90;;;;;;5139495;27;45356;-74
2022/07/09 00:02:48;;;;;;;7.30;2.58;;;19.00;93.70;;;;;;5146140;27;45247;-74
2022/07/09 00:05:15;;;;;;;6.63;2.92;;;19.00;93.70;;;;;;5131413;27;47373;-74
2022/07/09 00:07:42;;;;;;;10.43;3.30;;;19.00;93.70;;;;;;5142408;27;45389;-74
2022/07/09 00:10:10;;;;;;;6.65;3.08;;;19.00;93.70;;;;;;5137515;27;45409;-74
2022/07/09 00:12:37;;;;;;;8.10;2.58;;;19.00;93.70;;;;;;5135115;27;45576;-74
2022/07/09 00:15:06;;;;;;;8.65;2.65;;;19.00;94.00;;;;;;5145125;27;47524;-74
2022/07/09 00:17:33;;;;;;;8.35;2.60;;;19.00;93.90;;;;;;5145708;27;45199;-74
2022/07/09 00:20:02;;;;;;;5.53;2.83;;;18.90;93.80;;;;;;5145485;27;45355;-74
2022/07/09 00:22:29;;;;;;;7.80;2.65;;;18.90;93.80;;;;;;5146157;27;45474;-74
2022/07/09 00:24:55;;;;;;;7.40;2.78;;;18.90;94.10;;;;;;5144603;27;47557;-74
2022/07/09 00:27:22;;;;;;;9.30;2.83;;;18.90;94.60;;;;;;5145453;27;45208;-74
2022/07/09 00:29:49;;;;;;;4.53;2.83;;;18.90;94.60;;;;;;5143316;27;45303;-74
2022/07/09 00:32:18;;;;;;;8.13;2.50;;;18.90;94.60;;;;;;5146609;27;45434;-72
2022/07/09 00:34:45;;;;;;;8.18;3.13;;;18.90;94.80;;;;;;5133981;27;45634;-74
2022/07/09 00:37:12;;;;;;;5.80;2.75;;;18.90;94.70;;;;;;5140516;27;45292;-74
2022/07/09 00:39:38;;;;;;;6.32;2.83;;;18.80;94.70;;;;;;5137489;27;45365;-74
2022/07/09 00:42:06;;;;;;;6.25;2.85;;;18.80;94.60;;;;;;5144630;27;45462;-74
2022/07/09 00:44:33;;;;;;;6.15;2.95;;;18.70;94.50;;;;;;5146184;27;45318;-74
2022/07/09 00:47:00;;;;;;;6.97;2.55;;;18.70;94.70;;;;;;5145681;27;45294;-74
2022/07/09 00:49:35;;;;;;;6.90;2.92;;;18.60;95.00;;;;;;5143591;27;45251;-74
2022/07/09 00:52:02;;;;;;;6.68;3.03;;;18.60;95.20;;;;;;5131720;27;45447;-74
2022/07/09 00:54:28;;;;;;;4.88;2.45;;;18.60;95.30;;;;;;5138575;27;47381;-74
2022/07/09 00:56:55;;;;;;;8.98;2.58;;;18.50;95.50;;;;;;5128868;27;45420;-74
2022/07/09 00:59:23;;;;;;;9.30;3.15;;;18.50;95.50;;;;;;5139185;27;45299;-74
2022/07/09 01:01:51;;;;;;;4.00;2.65;;;18.40;95.40;;;;;;5145936;27;45188;-74
2022/07/09 01:04:18;;;;;;;7.38;3.20;;;18.40;95.40;;;;;;5145119;27;46563;-74
2022/07/09 01:06:46;;;;;;;10.52;3.55;;;18.40;96.00;;;;;;5134704;27;45412;-74
2022/07/09 01:09:14;;;;;;;8.70;3.55;;;18.40;96.00;;;;;;5140763;27;45404;-74
2022/07/09 01:11:41;;;;;;;8.52;3.30;;;18.40;96.00;;;;;;5125117;27;45465;-74
2022/07/09 01:14:07;;;;;;;7.93;3.67;;;18.40;96.20;;;;;;5136672;27;46288;-74
2022/07/09 01:16:37;;;;;;;8.50;3.85;;;18.40;96.10;;;;;;5132931;27;45426;-74
2022/07/09 01:19:04;;;;;;;11.43;3.55;;;18.40;96.30;;;;;;5143481;27;45439;-74
2022/07/09 01:21:33;;;;;;;10.00;4.05;;;18.40;96.20;;;;;;5145374;27;45292;-72
2022/07/09 01:24:00;;;;;;;8.02;3.80;;;18.40;96.10;;;;;;5142712;27;46328;-74
2022/07/09 01:26:27;;;;;;;9.90;3.90;;;18.40;96.20;;;;;;5134017;27;45223;-74
2022/07/09 01:28:54;;;;;;;8.23;3.83;;;18.30;96.60;;;;;;5149211;27;45396;-74
2022/07/09 01:31:20;;;;;;;8.45;3.95;;;18.30;96.40;;;;;;5144069;27;45201;-74
2022/07/09 01:33:47;;;;;;;8.90;3.65;;;18.10;96.40;;;;;;5128514;27;46842;-74
2022/07/09 01:36:14;;;;;;;6.82;3.97;;;18.10;96.80;;;;;;5142694;27;45991;-74
2022/07/09 01:38:42;;;;;;;8.77;4.43;;;18.10;97.20;;;;;;5143199;27;45460;-75
2022/07/09 01:41:10;;;;;;;9.07;4.00;;;18.10;97.10;;;;;;5131116;27;45436;-74
2022/07/09 01:43:36;;;;;;;7.65;3.72;;;18.10;97.10;;;;;;5133431;27;47558;-75
2022/07/09 01:46:03;;;;;;;9.43;4.15;;;18.10;96.90;;;;;;5144599;27;45322;-74
2022/07/09 01:48:38;;;;;;;10.38;4.13;;;18.10;97.10;;;;;;5144951;27;45349;-74
2022/07/09 01:51:05;;;;;;;6.05;3.38;;;18.10;97.30;;;;;;5146399;27;45531;-74
2022/07/09 01:53:33;;;;;;;7.07;3.60;;;18.10;97.20;;;;;;5143446;27;45417;-74
2022/07/09 01:56:06;;;;;;;8.85;3.92;;;18.10;97.50;;;;;;5141992;27;45410;-74
2022/07/09 01:58:32;;;;;;;14.13;4.10;;;18.20;97.50;;;;;;5148222;27;45231;-74
2022/07/09 02:00:59;;;;;;;8.25;4.03;;;18.20;97.50;;;;;;5145090;27;45449;-74
2022/07/09 02:03:26;;;;;;;9.13;4.13;;;18.20;97.30;;;;;;5146788;27;45403;-74
2022/07/09 02:05:53;;;;;;;9.25;4.15;;;18.30;97.50;;;;;;5146356;27;45479;-74
2022/07/09 02:08:20;;;;;;;13.55;4.22;;;18.30;97.50;;;;;;5148377;27;45457;-74
2022/07/09 02:10:47;;;;;;;12.15;4.13;;;18.30;97.60;;;;;;5141072;27;45348;-74
2022/07/09 02:13:15;;;;;;;7.05;3.83;;;18.30;97.50;;;;;;5145582;27;45407;-71
2022/07/09 02:15:42;;;;;;;7.28;3.50;;;18.30;97.40;;;;;;5136389;27;45358;-74
2022/07/09 02:18:08;;;;;;;8.55;3.88;;;18.30;97.50;;;;;;5146010;27;45204;-74
2022/07/09 02:20:35;;;;;;;10.05;4.15;;;18.30;97.60;;;;;;5138387;27;45341;-74
2022/07/09 02:23:02;;;;;;;7.75;3.38;;;18.30;97.70;;;;;;5126658;27;46768;-74
2022/07/09 02:25:29;;;;;;;10.57;3.53;;;18.30;97.90;;;;;;5141332;27;45377;-74
2022/07/09 02:27:56;;;;;;;7.88;4.38;;;18.20;97.90;;;;;;5147733;27;45396;-74
2022/07/09 02:30:25;;;;;;;7.10;3.83;;;18.20;97.80;;;;;;5147008;27;45394;-74
2022/07/09 02:32:51;;;;;;;7.80;3.70;;;18.20;97.90;;;;;;5147363;27;46289;-74
2022/07/09 02:35:18;;;;;;;7.75;3.90;;;18.10;98.00;;;;;;5140156;27;45329;-74
2022/07/09 02:37:45;;;;;;;6.10;3.60;;;18.10;98.00;;;;;;5147440;27;45310;-74
2022/07/09 02:40:14;;;;;;;5.82;4.28;;;18.00;98.00;;;;;;5147876;27;45196;-74
2022/07/09 02:42:41;;;;;;;8.23;3.78;;;18.00;98.10;;;;;;5147030;27;46556;-74
2022/07/09 02:45:08;;;;;;;8.05;3.80;;;17.90;98.20;;;;;;5127500;27;45407;-74
2022/07/09 02:47:37;;;;;;;6.00;3.20;;;17.80;98.40;;;;;;5142372;27;45215;-74
2022/07/09 02:50:04;;;;;;;8.70;4.13;;;17.80;98.60;;;;;;5147795;27;45376;-74
2022/07/09 02:52:31;;;;;;;12.93;5.82;;;17.80;98.70;;;;;;5142914;27;47317;-74
2022/07/09 02:54:57;;;;;;;13.60;4.30;;;17.70;98.80;;;;;;5131410;27;45351;-74
2022/07/09 02:57:24;;;;;;;7.30;4.25;;;17.70;99.10;;;;;;5145521;27;45351;-74
2022/07/09 02:59:51;;;;;;;8.60;4.60;;;17.70;99.30;;;;;;5147807;27;45249;-74
2022/07/09 03:02:18;;;;;;;6.80;4.03;;;17.60;99.40;;;;;;5146368;27;47053;-74
2022/07/09 03:04:46;;;;;;;7.60;4.80;;;17.60;99.60;;;;;;5132328;27;45422;-70
2022/07/09 03:07:13;;;;;;;11.73;4.50;;;17.50;99.60;;;;;;5127204;27;45447;-74
2022/07/09 03:09:40;;;;;;;7.55;3.92;;;17.50;99.70;;;;;;5143225;27;45356;-74
2022/07/09 03:12:08;;;;;;;7.47;3.80;;;17.50;99.90;;;;;;5126312;27;47288;-74
2022/07/09 03:14:36;;;;;;;6.20;3.88;;;17.40;99.90;;;;;;5139911;27;45454;-74
2022/07/09 03:17:02;;;;;;;13.15;4.63;;;17.30;99.90;;;;;;5147028;27;45370;-74
2022/07/09 03:19:29;;;;;;;7.93;3.80;;;17.20;99.90;;;;;;5135356;27;45320;-74
2022/07/09 03:21:57;;;;;;;6.50;4.03;;;17.20;99.90;;;;;;5136837;27;46604;-74
2022/07/09 03:24:24;;;;;;;6.50;3.67;;;17.10;99.90;;;;;;5145643;27;45446;-74
2022/07/09 03:26:51;;;;;;;6.65;3.75;;;17.10;99.90;;;;;;5145833;27;45530;-74
2022/07/09 03:29:17;;;;;;;7.35;4.03;;;17.00;99.90;;;;;;5147082;27;45286;-74
2022/07/09 03:31:44;;;;;;;7.82;4.80;;;17.00;99.90;;;;;;5147207;27;47371;-74
2022/07/09 03:34:11;;;;;;;7.80;4.45;;;17.00;99.90;;;;;;5136413;27;45510;-74
2022/07/09 03:36:38;;;;;;;8.27;4.28;;;17.00;99.90;;;;;;5133287;27;45298;-74
2022/07/09 03:39:06;;;;;;;10.27;3.90;;;17.10;99.90;;;;;;5138308;27;45411;-74
2022/07/09 03:41:34;;;;;;;9.13;4.40;;;17.10;99.90;;;;;;5147166;27;45276;-74
2022/07/09 03:44:00;;;;;;;9.50;4.40;;;17.10;99.90;;;;;;5146675;27;45463;-74
2022/07/09 03:46:29;;;;;;;5.57;3.97;;;17.10;99.90;;;;;;5143419;27;45444;-74
2022/07/09 03:48:55;;;;;;;10.35;3.95;;;17.10;99.90;;;;;;5147395;27;45393;-74
2022/07/09 03:51:22;;;;;;;10.73;4.25;;;17.10;99.90;;;;;;5140288;27;46559;-74
2022/07/09 03:53:49;;;;;;;8.65;3.85;;;17.10;99.90;;;;;;5138161;27;45468;-74
2022/07/09 03:56:19;;;;;;;7.80;4.22;;;17.10;99.90;;;;;;5146357;27;45399;-73
2022/07/09 03:58:46;;;;;;;8.90;4.10;;;17.10;99.90;;;;;;5126132;27;45223;-74
2022/07/09 04:01:13;;;;;;;10.50;4.47;;;17.00;99.90;;;;;;5126429;27;48889;-74
2022/07/09 04:03:40;;;;;;;9.13;3.80;;;17.00;99.90;;;;;;5142534;27;45393;-74
2022/07/09 04:06:07;;;;;;;6.18;3.90;;;17.00;99.90;;;;;;5137182;27;45354;-74
2022/07/09 04:08:34;;;;;;;13.90;4.28;;;16.90;99.90;;;;;;5136314;27;45204;-75
2022/07/09 04:11:01;;;;;;;6.72;3.58;;;16.90;99.90;;;;;;5133336;27;46428;-74
2022/07/09 04:13:29;;;;;;;10.43;4.15;;;16.90;99.90;;;;;;5135552;27;45268;-74
2022/07/09 04:15:56;;;;;;;9.70;4.22;;;16.90;99.90;;;;;;5146736;27;45413;-74
2022/07/09 04:18:23;;;;;;;9.88;4.65;;;16.80;99.90;;;;;;5145966;27;45245;-74
2022/07/09 04:20:50;;;;;;;8.60;5.00;;;16.80;99.90;;;;;;5133169;27;46646;-73
2022/07/09 04:23:17;;;;;;;9.95;4.57;;;16.80;99.90;;;;;;5139118;27;45375;-74
2022/07/09 04:25:45;;;;;;;7.43;4.82;;;16.90;99.90;;;;;;5146378;27;45275;-74
2022/07/09 04:28:12;;;;;;;8.45;4.78;;;16.90;99.90;;;;;;5146643;27;45598;-74
2022/07/09 04:30:40;;;;;;;7.38;5.00;;;16.90;99.90;;;;;;5145714;27;47564;-74
2022/07/09 04:33:07;;;;;;;11.55;5.20;;;17.00;99.90;;;;;;5145404;27;45309;-74
2022/07/09 04:35:35;;;;;;;9.23;4.80;;;17.00;99.90;;;;;;5146016;27;45388;-74
2022/07/09 04:38:02;;;;;;;13.77;6.07;;;17.00;99.90;;;;;;5128337;27;45448;-74
2022/07/09 04:40:29;;;;;;;11.05;5.75;;;17.00;99.90;;;;;;5124682;27;48295;-74
2022/07/09 04:42:56;;;;;;;12.65;5.80;;;17.00;99.90;;;;;;5134046;27;45369;-75
2022/07/09 04:45:23;;;;;;;11.20;6.00;;;17.00;99.90;;;;;;5138853;27;45377;-74
2022/07/09 04:47:51;;;;;;;12.07;6.57;;;17.10;99.90;;;;;;5140069;27;45372;-74
2022/07/09 04:50:18;;;;;;;12.70;6.70;;;17.10;99.90;;;;;;5136395;27;47312;-74
2022/07/09 04:52:44;;;;;;;9.55;5.60;;;17.20;99.90;;;;;;5137182;27;45283;-74
2022/07/09 04:55:11;;;;;;;11.52;6.82;;;17.20;99.90;;;;;;5138945;27;45416;-74
2022/07/09 04:57:38;;;;;;;10.70;6.63;;;17.30;99.90;;;;;;5136375;27;45493;-74
2022/07/09 05:00:06;;;;;;;14.20;6.75;;;17.40;99.90;;;;;;5142003;27;46356;-74
2022/07/09 05:02:33;;;;;;;14.02;7.18;;;17.30;99.90;;;;;;5134376;27;45434;-74
2022/07/09 05:05:03;;;;;;;12.32;7.00;;;17.40;99.90;;;;;;5145082;27;45356;-74
2022/07/09 05:07:30;;;;;;;15.52;8.20;;;17.40;99.90;;;;;;5149055;27;45573;-74
2022/07/09 05:09:57;;;;;;;15.00;7.45;;;17.40;99.90;;;;;;5148646;27;47304;-74
2022/07/09 05:12:24;;;;;;;17.70;7.85;;;17.30;99.90;;;;;;5127925;27;45228;-74
2022/07/09 05:14:51;;;;;;;14.13;7.93;;;17.30;99.90;;;;;;5138431;27;45452;-74
2022/07/09 05:17:18;;;;;;;12.77;7.88;;;17.20;99.90;;;;;;5130530;27;45335;-74
2022/07/09 05:19:45;;;;;;;15.63;8.45;;;17.10;99.90;;;;;;5145534;27;47203;-74
2022/07/09 05:22:13;;;;;;;12.13;7.97;;;17.20;99.90;;;;;;5147399;27;45478;-74
2022/07/09 05:24:40;;;;;;;14.45;7.22;;;17.20;99.90;;;;;;5142002;27;45444;-74
2022/07/09 05:27:08;;;;;;;12.93;7.38;;;17.20;99.90;;;;;;5140627;27;45411;-74
2022/07/09 05:29:35;;;;;;;13.57;7.85;;;17.20;99.90;;;;;;5148252;27;46732;-74
2022/07/09 05:32:02;;;;;;;15.80;8.30;;;17.20;99.90;;;;;;5145490;27;46057;-74
2022/07/09 05:34:29;;;;;;;17.40;8.50;;;17.20;99.90;;;;;;5143575;27;45340;-74
2022/07/09 05:36:55;;;;;;;14.35;8.10;;;17.30;99.90;;;;;;5148116;27;45542;-74
2022/07/09 05:39:24;;;;;;;12.13;7.82;;;17.40;99.90;;;;;;5148171;27;46540;-74
2022/07/09 05:41:51;;;;;;;11.63;7.68;;;17.50;99.90;;;;;;5146794;27;45352;-74
2022/07/09 05:44:18;;;;;;;15.27;8.30;;;17.50;99.90;;;;;;5133331;27;45273;-75
2022/07/09 05:46:45;;;;;;;12.20;7.95;;;17.60;99.90;;;;;;5147847;27;45294;-74
2022/07/09 05:49:12;;;;;;;17.33;8.75;;;17.70;99.90;;;;;;5143951;27;47385;-74
2022/07/09 05:51:39;;;;;;;17.48;8.95;;;17.80;99.90;;;;;;5149086;27;45429;-74
2022/07/09 05:54:05;;;;;;;13.70;9.13;;;17.90;99.90;;;;;;5147109;27;45369;-75
2022/07/09 05:56:34;;;;;;;15.10;9.35;;;17.90;99.90;;;;;;5147246;27;45525;-74
2022/07/09 05:59:02;;;;;;;19.02;9.65;;;18.00;99.90;;;;;;5140717;27;45715;-74
2022/07/09 06:01:31;;;;;;;14.38;9.43;;;18.00;99.90;;;;;;5148074;27;45307;-74
2022/07/09 06:03:57;;;;;;;15.68;8.75;;;18.10;99.90;;;;;;5131109;27;45310;-73
2022/07/09 06:06:24;;;;;;;18.52;9.27;;;18.20;99.90;;;;;;5143480;27;45706;-74
2022/07/09 06:08:52;;;;;;;17.92;9.57;;;18.20;99.90;;;;;;5147586;27;46613;-74
2022/07/09 06:11:18;;;;;;;17.00;9.43;;;18.30;99.90;;;;;;5148359;27;45412;-73
2022/07/09 06:13:46;;;;;;;18.27;9.32;;;18.30;99.90;;;;;;5148262;27;45329;-74
2022/07/09 06:16:13;;;;;;;16.08;9.32;;;18.40;99.90;;;;;;5143914;27;45330;-74
2022/07/09 06:18:40;;;;;;;17.27;9.02;;;18.40;99.90;;;;;;5141286;27;45210;-74
2022/07/09 06:21:07;;;;;;;16.20;8.43;;;18.50;99.90;;;;;;5129908;27;45365;-74
2022/07/09 06:23:33;;;;;;;16.50;8.25;;;18.50;99.90;;;;;;5147134;27;45485;-74
2022/07/09 06:26:00;;;;;;;13.57;8.02;;;18.50;99.90;;;;;;5144538;27;45463;-73
2022/07/09 06:28:27;;;;;;;15.32;7.80;;;18.50;99.90;;;;;;5141168;27;47730;-74
2022/07/09 06:30:55;;;;;;;18.30;8.55;;;18.60;99.90;;;;;;5143883;27;45322;-73
2022/07/09 06:33:22;;;;;;;10.60;6.85;;;18.50;99.90;;;;;;5131734;27;45528;-73
2022/07/09 06:35:49;;;;;;;12.48;7.20;;;18.60;99.90;;;;;;5136824;27;45359;-73
2022/07/09 06:38:16;;;;;;;15.43;7.70;;;18.70;99.90;;;;;;5146614;27;46314;-73
2022/07/09 06:40:43;;;;;;;18.25;8.48;;;18.80;99.90;;;;;;5134720;27;45208;-74
2022/07/09 06:43:11;;;;;;;13.73;6.95;;;18.80;99.90;;;;;;5143473;27;45220;-74
2022/07/09 06:45:37;;;;;;;13.55;6.13;;;18.80;99.90;;;;;;5147233;27;45463;-74
2022/07/09 06:48:06;;;;;;;12.82;6.45;;;18.90;99.90;;;;;;5146035;27;47914;-74
2022/07/09 06:50:33;;;;;;;9.75;5.57;;;18.90;99.90;;;;;;5136929;27;45282;-73
2022/07/09 06:53:00;;;;;;;9.32;6.07;;;19.00;99.90;;;;;;5132003;27;45452;-73
2022/07/09 06:55:27;;;;;;;12.77;5.63;;;19.00;99.90;;;;;;5138551;27;45443;-74
2022/07/09 06:57:53;;;;;;;11.63;4.40;;;19.00;99.90;;;;;;5130773;27;46658;-74
2022/07/09 07:00:20;;;;;;;8.23;3.78;;;19.00;99.90;;;;;;5140726;27;45365;-74
2022/07/09 07:02:47;;;;;;;7.22;4.07;;;19.10;99.90;;;;;;5145135;27;45360;-74
2022/07/09 07:05:15;;;;;;;9.35;4.30;;;19.10;99.90;;;;;;5138394;27;45353;-74
2022/07/09 07:07:45;;;;;;;7.65;3.28;;;19.20;99.90;;;;;;5136318;27;46280;-74
2022/07/09 07:10:12;;;;;;;3.00;1.67;;;19.20;99.90;;;;;;5135239;27;45403;-74
2022/07/09 07:12:40;;;;;;;4.07;1.98;;;19.20;99.70;;;;;;5132665;27;45513;-73
2022/07/09 07:15:08;;;;;;;4.95;1.75;;;19.20;99.10;;;;;;5131631;27;45694;-73
2022/07/09 07:17:35;;;;;;;8.15;2.47;;;19.30;98.90;;;;;;5144899;27;46476;-73
2022/07/09 07:20:01;;;;;;;7.55;2.42;;;19.40;99.40;;;;;;5140266;27;45357;-73
2022/07/09 07:22:30;;;;;;;4.82;2.10;;;19.30;99.30;;;;;;5144465;27;45316;-74
2022/07/09 07:24:56;;;;;;;3.80;1.80;;;19.30;99.90;;;;;;5146109;27;45474;-73
2022/07/09 07:27:23;;;;;;;3.83;1.98;;;19.30;98.90;;;;;;5140698;27;46665;-73
2022/07/09 07:29:50;;;;;;;3.85;2.10;;;19.30;98.20;;;;;;5128895;27;45456;-74
2022/07/09 07:32:17;;;;;;;3.78;1.92;;;19.20;98.60;;;;;;5134547;27;45470;-73
2022/07/09 07:34:43;;;;;;;4.47;2.20;;;19.30;98.80;;;;;;5137988;27;45359;-74
2022/07/09 07:37:10;;;;;;;8.25;1.95;;;19.40;99.50;;;;;;5139588;27;47315;-74
2022/07/09 07:39:38;;;;;;;3.95;1.80;;;19.30;98.90;;;;;;5135486;27;45435;-72
2022/07/09 07:42:07;;;;;;;2.92;1.75;;;19.50;98.80;;;;;;5137934;27;45428;-73
2022/07/09 07:44:33;;;;;;;3.83;1.75;;;19.60;98.20;;;;;;5134928;27;45363;-73
2022/07/09 07:47:00;;;;;;;4.85;1.45;;;19.60;97.70;;;;;;5131935;27;46604;-74
2022/07/09 07:49:27;;;;;;;4.00;1.80;;;19.70;97.80;;;;;;5143260;27;45656;-74
2022/07/09 07:51:54;;;;;;;3.45;1.55;;;19.70;97.30;;;;;;5136861;27;45417;-73
2022/07/09 07:54:21;;;;;;;3.42;1.40;;;19.70;97.60;;;;;;5143418;27;45289;-74
2022/07/09 07:56:49;;;;;;;3.28;1.60;;;19.80;96.80;;;;;;5136860;27;47102;-73
2022/07/09 07:59:17;;;;;;;2.75;1.10;;;19.90;96.70;;;;;;5134559;27;45361;-73
2022/07/09 08:01:43;;;;;;;4.00;1.63;;;19.90;96.40;;;;;;5132937;27;45446;-73
2022/07/09 08:04:10;;;;;;;2.80;1.25;;;20.00;96.50;;;;;;5127789;27;45412;-73
2022/07/09 08:06:37;;;;;;;4.82;1.30;;;19.90;96.10;;;;;;5137156;27;46466;-74
2022/07/09 08:09:04;;;;;;;4.43;1.30;;;20.00;96.20;;;;;;5135602;27;45552;-73
2022/07/09 08:11:31;;;;;;;1.23;1.13;;;20.00;96.10;;;;;;5144010;27;45413;-73
2022/07/09 08:13:59;;;;;;;1.88;1.30;;;20.00;95.60;;;;;;5144901;27;45488;-72
2022/07/09 08:16:26;;;;;;;4.53;1.45;;;20.00;95.60;;;;;;5144861;27;45487;-73
2022/07/09 08:18:52;;;;;;;9.60;2.08;;;20.00;95.70;;;;;;5144553;27;45427;-74
2022/07/09 08:21:19;;;;;;;6.10;1.38;;;20.10;95.40;;;;;;5127343;27;45455;-74
2022/07/09 08:23:53;;;;;;;3.58;1.63;;;20.10;95.50;;;;;;5125025;27;45408;-73
2022/07/09 08:26:21;;;;;;;2.20;1.45;;;20.10;95.70;;;;;;5124530;27;45567;-74
2022/07/09 08:28:48;;;;;;;2.50;1.33;;;20.10;95.40;;;;;;5124986;27;45357;-73
2022/07/09 08:31:17;;;;;;;3.42;1.52;;;20.20;95.40;;;;;;5125250;27;45498;-73
2022/07/09 08:33:43;;;;;;;8.32;1.50;;;20.20;94.70;;;;;;5127327;27;45354;-73
2022/07/09 08:36:10;;;;;;;2.25;1.20;;;20.20;94.70;;;;;;5147694;27;48339;-73
2022/07/09 08:38:38;;;;;;;3.80;1.20;;;20.20;94.90;;;;;;5149334;27;46988;-74
2022/07/09 08:41:06;;;;;;;2.35;1.00;;;20.20;95.00;;;;;;5149507;27;45356;-74
2022/07/09 08:43:34;;;;;;;3.75;1.10;;;20.30;94.60;;;;;;5149713;27;45463;-74
2022/07/09 08:46:01;;;;;;;2.50;1.00;;;20.30;95.30;;;;;;5149610;27;46071;-74
2022/07/09 08:48:29;;;;;;;1.80;0.75;;;20.30;94.90;;;;;;5136200;27;45339;-74
2022/07/09 08:50:58;;;;;;;2.30;1.10;;;20.40;94.90;;;;;;5128686;27;45310;-74
2022/07/09 08:53:27;;;;;;;2.38;1.27;;;20.30;99.90;;;;;;5128798;27;45361;-74
2022/07/09 08:55:54;;;;;;;2.67;1.02;;;20.40;99.90;;;;;;5128343;27;45251;-74
2022/07/09 08:58:21;;;;;;;2.47;0.90;;;20.40;95.50;;;;;;5128433;27;45264;-73
2022/07/09 09:00:50;;;;;;;0.82;0.60;;;20.40;94.00;;;;;;5128692;27;45392;-74
2022/07/09 09:03:17;;;;;;;1.85;0.60;;;20.50;93.60;;;;;;5128707;27;45458;-74
2022/07/09 09:05:46;;;;;;;1.33;0.80;;;20.40;95.20;;;;;;5128703;27;46307;-73
2022/07/09 09:08:20;;;;;;;0.60;0.50;;;20.60;92.00;;;;;;5128628;27;45412;-74
2022/07/09 09:10:47;;;;;;;2.25;0.70;;;20.70;92.00;;;;;;5128494;27;45311;-74
2022/07/09 09:13:15;;;;;;;0.98;0.60;;;20.70;90.60;;;;;;5128928;27;45404;-74
2022/07/09 09:15:42;;;;;;;2.80;0.63;;;20.70;93.90;;;;;;5128422;27;46519;-74
2022/07/09 09:18:10;;;;;;;0.98;0.60;;;20.70;93.20;;;;;;5128257;27;45357;-74
2022/07/09 09:20:36;;;;;;;1.67;0.65;;;20.90;90.70;;;;;;5158641;27;45277;-74
2022/07/09 09:23:10;;;;;;;0.60;0.60;;;20.90;89.60;;;;;;5170725;27;45351;-74
2022/07/09 09:25:38;;;;;;;2.30;0.50;;;20.90;90.30;;;;;;5170116;27;46450;-74
2022/07/09 09:28:05;;;;;;;0.57;0.57;;;21.00;90.20;;;;;;5170608;27;45331;-74
2022/07/09 09:30:32;;;;;;;1.60;0.60;;;21.00;90.20;;;;;;5170056;27;45273;-74
2022/07/09 09:33:00;;;;;;;2.70;0.75;;;21.00;88.50;;;;;;5170386;27;45416;-75
2022/07/09 09:35:28;;;;;;;1.30;0.63;;;21.00;90.30;;;;;;5169930;27;45289;-74
2022/07/09 09:37:55;;;;;;;2.45;0.80;;;21.20;88.90;;;;;;5169631;27;45506;-73
2022/07/09 09:40:24;;;;;;;1.52;0.70;;;21.40;86.40;;;;;;5169751;27;45239;-73
2022/07/09 09:42:51;;;;;;;0.60;0.52;;;21.40;86.20;;;;;;5170157;27;45321;-74
2022/07/09 09:45:18;;;;;;;0.32;0.32;;;21.30;85.00;;;;;;5169362;27;46850;-74
2022/07/09 09:47:49;;;;;;;0.50;0.50;;;21.30;87.00;;;;;;5162814;27;45195;-74
2022/07/09 09:50:19;;;;;;;0.95;0.60;;;21.30;87.00;;;;;;5148087;27;45342;-74
2022/07/09 09:52:47;;;;;;;3.03;0.60;;;21.40;84.70;;;;;;5148814;27;45302;-73
2022/07/09 09:55:15;;;;;;;0.80;0.50;;;21.40;89.70;;;;;;5148248;27;45289;-73
2022/07/09 09:57:44;;;;;;;0.85;0.63;;;21.30;87.80;;;;;;5148398;27;45251;-73
2022/07/09 10:00:13;;;;;;;1.52;0.80;;;21.40;84.50;;;;;;5138780;27;45343;-74
2022/07/09 10:02:44;;;;;;;1.13;0.60;;;21.50;85.00;;;;;;5127752;27;45495;-73
2022/07/09 10:05:11;;;;;;;2.78;0.70;;;21.60;85.70;;;;;;5127370;27;47052;-74
2022/07/09 10:07:39;;;;;;;0.73;0.68;;;21.60;85.90;;;;;;5127795;27;45248;-73
2022/07/09 10:10:34;;;;;;;2.40;0.85;;;21.60;85.80;;;;;;5135553;27;45266;-73
2022/07/09 10:13:02;;;;;;;4.80;0.95;;;21.90;85.20;;;;;;5136330;27;45429;-71
2022/07/09 10:15:28;;;;;;;2.45;0.73;;;21.90;83.60;;;;;;5134587;27;46613;-73
2022/07/09 10:17:56;;;;;;;1.40;0.80;;;21.80;88.00;;;;;;5137327;27;46099;-73
2022/07/09 10:20:33;;;;;;;1.63;0.80;;;22.70;81.20;;;;;;5139594;27;45455;-73
2022/07/09 10:23:01;;;;;;;2.25;1.05;;;22.50;79.90;;;;;;5145227;27;45465;-72
2022/07/09 10:25:30;;;;;;;3.70;1.05;;;22.70;80.60;;;;;;5132847;27;46951;-72
2022/07/09 10:27:57;;;;;;;2.38;0.70;;;22.70;80.60;;;;;;5138206;27;45343;-72
2022/07/09 10:30:26;;;;;;;3.60;0.90;;;22.70;79.90;;;;;;5144780;27;45538;-72
2022/07/09 10:33:04;;;;;;;3.60;1.05;;;22.70;80.70;;;;;;5138642;27;45344;-72
2022/07/09 10:35:31;;;;;;;2.15;0.80;;;22.70;80.60;;;;;;5132913;27;45471;-73
2022/07/09 10:37:58;;;;;;;3.75;0.75;;;22.70;82.80;;;;;;5140257;27;45468;-72
2022/07/09 10:40:27;;;;;;;2.45;1.00;;;22.80;81.30;;;;;;5141170;27;45461;-73
2022/07/09 10:43:00;;;;;;;2.00;1.00;;;22.60;80.50;;;;;;5135156;27;45465;-73
2022/07/09 10:45:31;;;;;;;1.27;0.80;;;22.40;81.00;;;;;;5138646;27;47974;-73
2022/07/09 10:47:59;;;;;;;1.85;1.10;;;22.40;84.20;;;;;;5145256;27;45425;-72
2022/07/09 10:50:27;;;;;;;2.63;0.95;;;22.50;81.00;;;;;;5135245;27;45284;-71
2022/07/09 10:52:55;;;;;;;1.13;0.98;;;22.50;80.30;;;;;;5129363;27;45493;-72
2022/07/09 10:55:24;;;;;;;3.47;1.52;;;22.60;78.90;;;;;;5149244;27;47106;-72
2022/07/09 10:57:51;;;;;;;2.00;1.00;;;22.60;78.90;;;;;;5134859;27;45434;-71
2022/07/09 11:00:20;;;;;;;0.75;0.75;;;22.40;79.70;;;;;;5142110;27;45493;-71
2022/07/09 11:02:56;;;;;;;2.03;1.10;;;22.50;80.40;;;;;;5137737;27;45581;-72
2022/07/09 11:05:23;;;;;;;3.17;1.45;;;23.00;79.20;;;;;;5143194;27;48175;-73
2022/07/09 11:08:04;;;;;;;1.98;1.08;;;22.90;78.80;;;;;;5129371;27;45311;-72
2022/07/09 11:10:32;;;;;;;2.72;1.17;;;22.90;78.80;;;;;;5129915;27;45325;-72
2022/07/09 11:13:00;;;;;;;2.72;1.50;;;22.80;78.90;;;;;;5130891;27;45440;-72
2022/07/09 11:15:29;;;;;;;3.00;1.38;;;22.70;79.10;;;;;;5131544;27;45459;-73
2022/07/09 11:18:01;;;;;;;2.53;1.27;;;22.70;78.70;;;;;;5133567;27;45645;-72
2022/07/09 11:20:29;;;;;;;1.98;1.02;;;22.70;78.60;;;;;;5133307;27;45353;-71
2022/07/09 11:22:57;;;;;;;4.55;1.33;;;22.60;80.50;;;;;;5133254;27;45467;-73
2022/07/09 11:25:25;;;;;;;4.05;1.17;;;22.70;78.70;;;;;;5133688;27;45311;-73
2022/07/09 11:27:52;;;;;;;3.58;1.50;;;22.80;78.00;;;;;;5130327;27;45393;-73
2022/07/09 11:30:19;;;;;;;2.50;1.30;;;22.90;77.50;;;;;;5142349;27;45364;-73
2022/07/09 11:32:46;;;;;;;1.67;1.10;;;23.00;77.10;;;;;;5144334;27;45429;-73
2022/07/09 11:35:25;;;;;;;1.38;1.20;;;23.00;76.40;;;;;;5144185;27;46656;-72
2022/07/09 11:37:52;;;;;;;2.58;1.30;;;22.90;77.10;;;;;;5143687;27;45432;-71
2022/07/09 11:40:20;;;;;;;2.83;1.75;;;22.90;77.40;;;;;;5125188;27;45572;-72
2022/07/09 11:42:49;;;;;;;3.53;1.65;;;22.90;78.00;;;;;;5129420;27;45471;-72
2022/07/09 11:45:21;;;;;;;4.78;1.60;;;22.70;78.50;;;;;;5141780;27;47972;-72
2022/07/09 11:47:48;;;;;;;3.17;1.50;;;22.70;80.60;;;;;;5140223;27;45368;-72
2022/07/09 11:50:19;;;;;;;2.70;1.10;;;22.70;79.20;;;;;;5137324;27;45231;-70
2022/07/09 11:52:47;;;;;;;2.50;1.15;;;22.70;80.20;;;;;;5128686;27;45347;-71
2022/07/09 11:55:18;;;;;;;3.83;2.05;;;22.70;80.60;;;;;;5141001;27;48060;-71
2022/07/09 11:57:54;;;;;;;4.15;1.45;;;23.10;78.60;;;;;;5133009;27;45947;-71
2022/07/09 12:00:23;;;;;;;1.75;1.10;;;22.90;79.20;;;;;;5139039;27;45580;-71
2022/07/09 12:02:49;;;;;;;2.55;1.45;;;22.70;80.30;;;;;;5141703;27;45235;-71
2022/07/09 12:05:26;;;;;;;2.00;1.45;;;22.80;80.70;;;;;;5145320;27;47088;-72
2022/07/09 12:07:54;;;;;;;2.30;1.67;;;22.80;81.70;;;;;;5146175;27;45321;-72
2022/07/09 12:10:26;;;;;;;5.18;2.05;;;22.80;81.00;;;;;;5132206;27;45507;-72
2022/07/09 12:12:53;;;;;;;3.13;1.88;;;22.90;81.00;;;;;;5138966;27;45530;-71
2022/07/09 12:15:20;;;;;;;3.88;1.88;;;22.80;80.70;;;;;;5146067;27;46431;-71
2022/07/09 12:17:52;;;;;;;3.75;1.90;;;22.80;80.70;;;;;;5139514;27;45413;-71
2022/07/09 12:20:21;;;;;;;6.38;2.13;;;22.70;80.60;;;;;;5140268;27;45528;-71
2022/07/09 12:22:47;;;;;;;5.55;1.88;;;22.60;82.10;;;;;;5138685;27;45345;-72
2022/07/09 12:25:14;;;;;;;5.80;2.00;;;22.50;82.80;;;;;;5144941;27;47163;-72
2022/07/09 12:27:41;;;;;;;6.00;2.30;;;22.60;83.30;;;;;;5137058;27;45364;-72
2022/07/09 12:30:09;;;;;;;7.50;2.35;;;22.60;83.30;;;;;;5136077;27;45363;-72
2022/07/09 12:32:36;;;;;;;5.72;2.67;;;22.60;83.30;;;;;;5138520;27;45328;-72
2022/07/09 12:35:03;;;;;;;3.88;2.17;;;22.50;83.30;;;;;;5133860;27;45464;-72
2022/07/09 12:37:31;;;;;;;3.63;2.30;;;22.40;84.10;;;;;;5136615;27;45441;-72
2022/07/09 12:39:58;;;;;;;4.03;2.53;;;22.40;84.50;;;;;;5141555;27;45386;-72
2022/07/09 12:42:25;;;;;;;6.13;2.45;;;22.40;84.60;;;;;;5134559;27;45612;-71
2022/07/09 12:44:52;;;;;;;4.30;2.55;;;22.30;86.80;;;;;;5134546;27;46628;-71
2022/07/09 12:47:19;;;;;;;7.53;2.70;;;22.20;86.70;;;;;;5132539;27;45456;-71